Time;durP1;ratioP1;P1;durP2;ratioP2;P2;SDS_P1;SDS_P2;PMS_P1;PMS_P2;Temp;Humidity;BMP_temperature;BMP_pressure;BME280_temperature;BME280_humidity;BME280_pressure;Samples;Min_cycle;Max_cycle;Signal;HPM_P1;HPM_P2
2021/06/30 00:00:02;;;;;;;3.72;1.83;;;;;;;;;;4950094;28;20082;-91
2021/06/30 00:02:48;;;;;;;3.30;1.60;;;;;;;;;;4947498;28;20031;-92
2021/06/30 00:05:33;;;;;;;3.63;1.42;;;;;;;;;;4947921;28;20031;-92
2021/06/30 00:08:19;;;;;;;4.97;1.42;;;;;;;;;;4946467;29;20031;-90
2021/06/30 00:11:04;;;;;;;2.55;1.33;;;;;;;;;;4952300;28;20023;-92
2021/06/30 00:13:49;;;;;;;3.20;1.63;;;;;;;;;;4947197;28;20382;-90
2021/06/30 00:16:35;;;;;;;4.63;1.42;;;;;;;;;;4934638;28;20034;-91
2021/06/30 00:19:21;;;;;;;5.80;1.50;;;;;;;;;;4947616;28;20031;-91
2021/06/30 00:22:06;;;;;;;3.08;1.52;;;;;;;;;;4947569;28;20132;-91
2021/06/30 00:24:52;;;;;;;2.92;1.42;;;;;;;;;;4948256;29;20035;-91
2021/06/30 00:27:37;;;;;;;4.03;2.17;;;;;;;;;;4940343;29;20736;-90
2021/06/30 00:30:22;;;;;;;3.45;1.90;;;;;;;;;;4937224;29;20479;-91
2021/06/30 00:33:08;;;;;;;3.38;1.80;;;;;;;;;;4942144;29;20080;-93
2021/06/30 00:35:53;;;;;;;6.40;1.33;;;;;;;;;;4950296;29;20025;-91
2021/06/30 00:38:38;;;;;;;4.03;1.67;;;;;;;;;;4944385;29;20782;-91
2021/06/30 00:41:24;;;;;;;4.93;1.40;;;;;;;;;;4940572;29;20074;-91
2021/06/30 00:44:09;;;;;;;2.30;1.40;;;;;;;;;;4931551;29;20486;-91
2021/06/30 00:46:55;;;;;;;3.05;1.20;;;;;;;;;;4953632;29;20030;-90
2021/06/30 00:49:40;;;;;;;2.00;1.55;;;;;;;;;;4960722;29;20085;-91
2021/06/30 00:52:25;;;;;;;3.00;1.27;;;;;;;;;;4947748;29;20028;-91
2021/06/30 00:55:11;;;;;;;7.40;2.22;;;;;;;;;;4945292;29;20032;-91
2021/06/30 00:57:58;;;;;;;1.45;1.35;;;;;;;;;;4938379;29;20095;-90
2021/06/30 01:00:43;;;;;;;2.38;1.25;;;;;;;;;;4940625;29;20033;-90
2021/06/30 01:03:29;;;;;;;2.45;1.60;;;;;;;;;;4941039;29;20031;-90
2021/06/30 01:06:14;;;;;;;3.88;1.40;;;;;;;;;;4923287;29;20046;-91
2021/06/30 01:09:03;;;;;;;5.75;1.40;;;;;;;;;;4949021;29;20329;-89
2021/06/30 01:11:49;;;;;;;2.78;1.13;;;;;;;;;;4945491;29;20090;-92
2021/06/30 01:14:35;;;;;;;7.78;1.70;;;;;;;;;;4925956;29;20035;-88
2021/06/30 01:17:21;;;;;;;5.07;1.20;;;;;;;;;;4944723;29;20031;-91
2021/06/30 01:20:06;;;;;;;3.33;1.30;;;;;;;;;;4940506;29;20038;-91
2021/06/30 01:23:10;;;;;;;2.85;1.10;;;;;;;;;;4948061;29;20019;-89
2021/06/30 01:25:56;;;;;;;1.88;1.38;;;;;;;;;;4956484;28;20036;-89
2021/06/30 01:28:41;;;;;;;4.70;1.30;;;;;;;;;;4949744;29;20011;-90
2021/06/30 01:31:27;;;;;;;4.88;1.23;;;;;;;;;;4938184;29;20032;-90
2021/06/30 01:34:12;;;;;;;2.38;1.33;;;;;;;;;;4934586;29;20069;-90
2021/06/30 01:36:58;;;;;;;3.67;1.35;;;;;;;;;;4930343;29;20031;-90
2021/06/30 01:39:43;;;;;;;4.45;1.23;;;;;;;;;;4946139;29;20063;-90
2021/06/30 01:42:28;;;;;;;1.20;0.82;;;;;;;;;;4927887;29;20046;-88
2021/06/30 01:45:14;;;;;;;2.30;1.00;;;;;;;;;;4935686;29;20418;-89
2021/06/30 01:47:59;;;;;;;1.33;0.90;;;;;;;;;;4928365;29;20176;-87
2021/06/30 01:50:45;;;;;;;1.52;0.70;;;;;;;;;;4940496;29;20626;-87
2021/06/30 01:53:30;;;;;;;2.38;0.85;;;;;;;;;;4920342;29;20122;-90
2021/06/30 01:56:20;;;;;;;2.35;1.08;;;;;;;;;;4937682;29;20030;-88
2021/06/30 01:59:07;;;;;;;2.40;1.10;;;;;;;;;;4932438;29;20475;-89
2021/06/30 02:01:52;;;;;;;2.22;0.80;;;;;;;;;;4944873;29;20066;-90
2021/06/30 02:04:38;;;;;;;2.25;1.02;;;;;;;;;;4938852;29;20509;-91
2021/06/30 02:07:24;;;;;;;3.22;1.00;;;;;;;;;;4944059;29;20478;-90
2021/06/30 02:10:10;;;;;;;4.60;1.05;;;;;;;;;;4946728;29;20115;-91
2021/06/30 02:12:56;;;;;;;4.32;1.15;;;;;;;;;;4965345;28;20019;-90
2021/06/30 02:15:42;;;;;;;3.10;0.90;;;;;;;;;;4944787;29;20538;-89
2021/06/30 02:18:27;;;;;;;1.08;0.70;;;;;;;;;;4940267;29;20038;-90
2021/06/30 02:21:12;;;;;;;3.58;1.10;;;;;;;;;;4941766;29;20015;-90
2021/06/30 02:23:58;;;;;;;1.25;0.95;;;;;;;;;;4934020;28;20031;-92
2021/06/30 02:26:43;;;;;;;1.23;0.80;;;;;;;;;;4948772;28;20076;-92
2021/06/30 02:29:28;;;;;;;1.48;0.80;;;;;;;;;;4952171;28;20175;-88
2021/06/30 02:32:14;;;;;;;2.28;0.95;;;;;;;;;;4943811;28;20023;-90
2021/06/30 02:34:59;;;;;;;1.92;0.73;;;;;;;;;;4939604;28;20430;-90
2021/06/30 02:37:45;;;;;;;2.05;0.70;;;;;;;;;;4949547;28;20553;-90
2021/06/30 02:40:30;;;;;;;3.42;1.70;;;;;;;;;;4949930;28;20038;-90
2021/06/30 02:43:15;;;;;;;1.98;0.70;;;;;;;;;;4950054;28;20588;-88
2021/06/30 02:46:02;;;;;;;3.47;0.85;;;;;;;;;;4933869;28;20119;-89
2021/06/30 02:48:47;;;;;;;1.00;0.70;;;;;;;;;;4947985;28;20473;-91
2021/06/30 02:51:32;;;;;;;1.30;0.70;;;;;;;;;;4944494;28;20031;-90
2021/06/30 02:54:18;;;;;;;1.25;0.63;;;;;;;;;;4950503;28;20118;-90
2021/06/30 02:57:03;;;;;;;4.05;0.80;;;;;;;;;;4943338;28;20126;-89
2021/06/30 02:59:48;;;;;;;0.88;0.60;;;;;;;;;;4957538;28;20432;-89
2021/06/30 03:02:33;;;;;;;3.80;0.63;;;;;;;;;;4947899;28;20078;-90
2021/06/30 03:05:19;;;;;;;1.27;0.70;;;;;;;;;;4943281;28;20023;-89
2021/06/30 03:08:04;;;;;;;1.65;0.68;;;;;;;;;;4940100;28;20026;-89
2021/06/30 03:10:49;;;;;;;0.60;0.60;;;;;;;;;;4937046;28;20023;-89
2021/06/30 03:13:35;;;;;;;1.48;0.57;;;;;;;;;;4946821;28;20508;-89
2021/06/30 03:16:20;;;;;;;0.68;0.60;;;;;;;;;;4942040;28;20028;-89
2021/06/30 03:19:05;;;;;;;2.20;0.63;;;;;;;;;;4950947;28;20026;-90
2021/06/30 03:21:54;;;;;;;0.50;0.50;;;;;;;;;;4933936;28;20029;-91
2021/06/30 03:24:39;;;;;;;1.30;0.93;;;;;;;;;;4957045;28;20122;-90
2021/06/30 03:27:24;;;;;;;1.10;0.68;;;;;;;;;;4948461;28;20015;-91
2021/06/30 03:30:10;;;;;;;0.93;0.90;;;;;;;;;;4946177;28;20031;-90
2021/06/30 03:32:55;;;;;;;0.90;0.70;;;;;;;;;;4946752;28;20031;-89
2021/06/30 03:35:41;;;;;;;0.60;0.60;;;;;;;;;;4951682;28;20465;-90
2021/06/30 03:38:26;;;;;;;1.40;0.60;;;;;;;;;;4941431;28;20118;-89
2021/06/30 03:41:11;;;;;;;2.70;0.70;;;;;;;;;;4945094;28;20486;-88
2021/06/30 03:43:56;;;;;;;0.60;0.60;;;;;;;;;;4941404;28;20042;-87
2021/06/30 03:46:42;;;;;;;0.80;0.70;;;;;;;;;;4946306;28;20501;-91
2021/06/30 03:49:27;;;;;;;1.38;0.60;;;;;;;;;;4936607;28;20050;-90
2021/06/30 03:52:12;;;;;;;1.73;0.60;;;;;;;;;;4946665;28;20085;-88
2021/06/30 03:54:58;;;;;;;1.05;0.60;;;;;;;;;;4949173;28;20031;-89
2021/06/30 03:57:43;;;;;;;2.80;0.60;;;;;;;;;;4952094;28;20031;-87
2021/06/30 04:00:28;;;;;;;0.68;0.60;;;;;;;;;;4959498;28;20046;-89
2021/06/30 04:03:13;;;;;;;9.75;1.00;;;;;;;;;;4954558;28;20027;-89
2021/06/30 04:05:59;;;;;;;2.28;0.70;;;;;;;;;;4955912;28;20023;-89
2021/06/30 04:08:44;;;;;;;0.77;0.65;;;;;;;;;;4949395;28;20425;-87
2021/06/30 04:11:29;;;;;;;1.13;0.60;;;;;;;;;;4944676;28;20351;-90
2021/06/30 04:14:14;;;;;;;4.13;0.80;;;;;;;;;;4947595;28;20078;-89
2021/06/30 04:17:00;;;;;;;2.75;0.77;;;;;;;;;;4951416;28;20117;-90
2021/06/30 04:19:45;;;;;;;2.08;0.70;;;;;;;;;;4941165;28;20042;-89
2021/06/30 04:22:30;;;;;;;2.78;0.90;;;;;;;;;;4946908;28;20043;-88
2021/06/30 04:25:15;;;;;;;1.27;0.80;;;;;;;;;;4944994;28;20103;-89
2021/06/30 04:28:01;;;;;;;1.35;0.77;;;;;;;;;;4950848;28;20338;-91
2021/06/30 04:30:46;;;;;;;2.45;0.70;;;;;;;;;;4948736;28;20042;-84
2021/06/30 04:33:31;;;;;;;2.58;0.80;;;;;;;;;;4949672;28;20019;-85
2021/06/30 04:36:20;;;;;;;2.17;0.80;;;;;;;;;;4953875;28;20027;-88
2021/06/30 04:39:05;;;;;;;0.75;0.52;;;;;;;;;;4932293;28;20116;-88
2021/06/30 04:41:50;;;;;;;1.98;0.60;;;;;;;;;;4943095;28;20435;-86
2021/06/30 04:44:35;;;;;;;0.80;0.65;;;;;;;;;;4948737;28;20042;-88
2021/06/30 04:47:21;;;;;;;1.02;0.70;;;;;;;;;;4947272;28;20080;-86
2021/06/30 04:50:06;;;;;;;2.63;0.70;;;;;;;;;;4946870;28;20081;-89
2021/06/30 04:52:51;;;;;;;1.88;0.70;;;;;;;;;;4953418;28;20121;-88
2021/06/30 04:55:37;;;;;;;0.90;0.80;;;;;;;;;;4945671;28;20389;-86
2021/06/30 04:58:23;;;;;;;1.55;0.70;;;;;;;;;;4947068;29;20398;-88
2021/06/30 05:01:08;;;;;;;0.85;0.70;;;;;;;;;;4930417;28;20428;-90
2021/06/30 05:03:54;;;;;;;3.67;1.00;;;;;;;;;;4949274;28;20071;-89
2021/06/30 05:06:39;;;;;;;4.22;0.93;;;;;;;;;;4950169;28;20019;-85
2021/06/30 05:16:29;;;;;;;1.30;0.70;;;;;;;;;;4979944;28;20034;-94
2021/06/30 05:24:31;;;;;;;1.05;0.80;;;;;;;;;;4856000;26;20265;-92
2021/06/30 05:27:49;;;;;;;2.35;0.90;;;;;;;;;;4952775;28;20019;-95
2021/06/30 05:30:33;;;;;;;2.58;1.20;;;;;;;;;;4955705;28;20034;-93
2021/06/30 05:33:20;;;;;;;3.22;1.08;;;;;;;;;;4940352;29;20613;-93
2021/06/30 05:36:05;;;;;;;0.80;0.73;;;;;;;;;;4944557;29;20363;-89
2021/06/30 05:38:50;;;;;;;4.03;1.58;;;;;;;;;;4942888;29;20029;-87
2021/06/30 05:41:35;;;;;;;3.45;0.90;;;;;;;;;;4937450;29;20030;-85
2021/06/30 05:44:21;;;;;;;2.58;0.90;;;;;;;;;;4932957;29;20115;-87
2021/06/30 05:47:06;;;;;;;3.22;0.95;;;;;;;;;;4936559;28;20414;-87
2021/06/30 05:49:51;;;;;;;2.83;1.05;;;;;;;;;;4930923;28;20027;-91
2021/06/30 06:02:46;;;;;;;0.88;0.75;;;;;;;;;;4951727;28;20030;-80
2021/06/30 06:05:31;;;;;;;2.97;1.13;;;;;;;;;;4938581;29;20066;-78
2021/06/30 06:08:16;;;;;;;1.75;0.95;;;;;;;;;;4937778;28;20053;-79
2021/06/30 06:11:02;;;;;;;1.35;0.82;;;;;;;;;;4934678;28;20076;-79
2021/06/30 06:13:47;;;;;;;2.33;0.90;;;;;;;;;;4938045;28;20026;-79
2021/06/30 06:16:32;;;;;;;3.08;1.27;;;;;;;;;;4937151;28;20525;-79
2021/06/30 06:19:19;;;;;;;1.40;0.77;;;;;;;;;;4936790;28;20019;-79
2021/06/30 06:22:05;;;;;;;0.82;0.60;;;;;;;;;;4942620;28;20035;-79
2021/06/30 06:24:54;;;;;;;1.00;0.90;;;;;;;;;;4934922;28;20031;-79
2021/06/30 06:27:39;;;;;;;2.47;0.80;;;;;;;;;;4935413;28;20027;-79
2021/06/30 06:30:28;;;;;;;2.42;0.70;;;;;;;;;;4932272;28;20094;-79
2021/06/30 06:33:13;;;;;;;;;;;;;;;;;;4935840;28;20031;-78
2021/06/30 06:35:59;;;;;;;2.13;1.00;;;;;;;;;;4936369;28;19917;-80
2021/06/30 06:38:45;;;;;;;1.67;0.95;;;;;;;;;;4936345;29;20035;-78
2021/06/30 06:41:31;;;;;;;1.08;0.68;;;;;;;;;;4932476;28;20086;-78
2021/06/30 06:44:16;;;;;;;1.58;0.85;;;;;;;;;;4934611;28;20016;-79
2021/06/30 06:47:02;;;;;;;1.05;0.80;;;;;;;;;;4919088;28;20482;-79
2021/06/30 06:49:47;;;;;;;1.83;0.70;;;;;;;;;;4938076;28;20031;-86
2021/06/30 06:52:32;;;;;;;0.68;0.60;;;;;;;;;;4935194;28;20028;-83
2021/06/30 06:55:18;;;;;;;1.13;0.88;;;;;;;;;;4936419;28;20045;-84
2021/06/30 06:58:03;;;;;;;1.40;0.80;;;;;;;;;;4943896;28;20045;-84
2021/06/30 07:00:48;;;;;;;1.45;0.90;;;;;;;;;;4936214;28;20055;-83
2021/06/30 07:03:34;;;;;;;1.02;0.90;;;;;;;;;;4939695;28;20589;-86
2021/06/30 07:06:19;;;;;;;2.83;0.90;;;;;;;;;;4933232;28;20039;-85
2021/06/30 07:09:06;;;;;;;1.60;0.80;;;;;;;;;;4936491;28;20023;-88
2021/06/30 07:11:51;;;;;;;0.70;0.70;;;;;;;;;;4938849;28;20027;-88
2021/06/30 07:14:37;;;;;;;0.95;0.63;;;;;;;;;;4937586;29;20031;-87
2021/06/30 07:17:22;;;;;;;1.98;0.85;;;;;;;;;;4939886;28;20085;-88
2021/06/30 07:20:07;;;;;;;1.02;0.70;;;;;;;;;;4936889;28;20154;-86
2021/06/30 07:22:53;;;;;;;0.60;0.60;;;;;;;;;;4941425;28;20130;-91
2021/06/30 07:25:39;;;;;;;0.63;0.60;;;;;;;;;;4941342;29;20035;-90
2021/06/30 07:28:25;;;;;;;1.67;0.70;;;;;;;;;;4928148;28;20035;-88
2021/06/30 07:31:10;;;;;;;0.70;0.70;;;;;;;;;;4946329;29;20046;-89
2021/06/30 07:33:55;;;;;;;1.92;0.80;;;;;;;;;;4930776;28;20026;-90
2021/06/30 07:36:41;;;;;;;3.13;0.77;;;;;;;;;;4944038;28;20034;-89
2021/06/30 07:39:33;;;;;;;0.60;0.60;;;;;;;;;;4934217;28;20030;-92
2021/06/30 07:42:18;;;;;;;0.50;0.50;;;;;;;;;;4938149;28;20033;-88
2021/06/30 07:45:04;;;;;;;0.40;0.40;;;;;;;;;;4941882;28;20054;-87
2021/06/30 07:47:56;;;;;;;0.57;0.50;;;;;;;;;;4945428;28;20022;-92
2021/06/30 07:50:42;;;;;;;1.65;0.70;;;;;;;;;;4899293;29;20088;-92
2021/06/30 07:53:27;;;;;;;1.25;0.70;;;;;;;;;;4871199;29;20041;-92
2021/06/30 07:56:12;;;;;;;;;;;;;;;;;;;;;
2021/06/30 07:59:08;;;;;;;1.83;0.70;;;;;;;;;;4880195;29;19912;-92
2021/06/30 08:01:53;;;;;;;0.50;0.50;;;;;;;;;;4912883;28;20027;-91
2021/06/30 08:04:41;;;;;;;0.77;0.77;;;;;;;;;;4935970;28;20446;-90
2021/06/30 08:07:26;;;;;;;2.25;0.63;;;;;;;;;;4934512;28;20034;-89
2021/06/30 08:10:12;;;;;;;0.60;0.60;;;;;;;;;;4940460;28;20470;-88
2021/06/30 08:12:57;;;;;;;1.60;0.57;;;;;;;;;;4943382;28;20062;-84
2021/06/30 08:15:42;;;;;;;1.42;0.63;;;;;;;;;;4939795;28;20051;-86
2021/06/30 08:18:28;;;;;;;1.35;0.68;;;;;;;;;;4940347;29;20023;-88
2021/06/30 08:21:13;;;;;;;0.90;0.60;;;;;;;;;;4938880;28;20033;-80
2021/06/30 08:23:58;;;;;;;2.88;0.73;;;;;;;;;;4934615;28;20050;-79
2021/06/30 08:26:44;;;;;;;1.02;0.60;;;;;;;;;;4943906;28;20486;-84
2021/06/30 08:29:30;;;;;;;3.78;0.70;;;;;;;;;;4935105;28;21511;-81
2021/06/30 08:32:16;;;;;;;1.17;0.90;;;;;;;;;;4947952;28;20013;-94
2021/06/30 08:35:05;;;;;;;0.90;0.60;;;;;;;;;;4943964;28;20077;-91
2021/06/30 08:37:54;;;;;;;0.73;0.60;;;;;;;;;;4942781;29;20035;-92
2021/06/30 08:40:42;;;;;;;1.95;0.70;;;;;;;;;;4941801;28;20035;-91
2021/06/30 08:43:28;;;;;;;0.60;0.57;;;;;;;;;;4941451;28;20023;-93
2021/06/30 08:46:20;;;;;;;2.60;0.85;;;;;;;;;;4936833;29;20035;-89
2021/06/30 08:49:06;;;;;;;0.98;0.70;;;;;;;;;;4939242;29;20015;-88
2021/06/30 08:51:53;;;;;;;1.77;0.90;;;;;;;;;;4933073;28;20031;-87
2021/06/30 08:54:39;;;;;;;4.38;0.88;;;;;;;;;;4925183;28;20027;-88
2021/06/30 08:57:26;;;;;;;1.52;0.90;;;;;;;;;;4942590;29;20027;-88
2021/06/30 09:00:11;;;;;;;0.95;0.60;;;;;;;;;;4936939;28;20470;-91
2021/06/30 09:02:59;;;;;;;0.75;0.63;;;;;;;;;;4939615;28;20116;-89
2021/06/30 09:08:41;;;;;;;0.82;0.60;;;;;;;;;;4936558;28;20031;-89
2021/06/30 09:11:27;;;;;;;0.52;0.52;;;;;;;;;;4939009;28;20039;-91
2021/06/30 09:14:20;;;;;;;1.15;0.60;;;;;;;;;;4924294;29;20025;-90
2021/06/30 09:17:16;;;;;;;2.28;0.60;;;;;;;;;;4927308;29;20305;-88
2021/06/30 09:20:07;;;;;;;0.75;0.57;;;;;;;;;;4937070;29;20033;-94
2021/06/30 09:22:54;;;;;;;0.93;0.60;;;;;;;;;;4934748;29;20044;-88
2021/06/30 09:25:42;;;;;;;0.80;0.73;;;;;;;;;;4933339;28;20386;-89
2021/06/30 09:28:27;;;;;;;1.45;0.65;;;;;;;;;;4935717;29;20027;-90
2021/06/30 09:31:15;;;;;;;0.50;0.50;;;;;;;;;;4941143;29;20501;-94
2021/06/30 09:34:04;;;;;;;0.50;0.50;;;;;;;;;;4939402;29;20386;-90
2021/06/30 09:37:05;;;;;;;0.93;0.60;;;;;;;;;;4936319;28;20039;-89
2021/06/30 09:39:54;;;;;;;2.08;1.23;;;;;;;;;;4935125;28;20057;-88
2021/06/30 09:42:40;;;;;;;2.20;0.77;;;;;;;;;;4935955;28;20030;-86
2021/06/30 09:45:25;;;;;;;0.60;0.50;;;;;;;;;;4939460;28;20082;-89
2021/06/30 09:48:24;;;;;;;1.20;0.70;;;;;;;;;;4936680;28;20043;-88
2021/06/30 09:51:16;;;;;;;2.28;0.50;;;;;;;;;;4937155;29;20029;-88
2021/06/30 09:54:04;;;;;;;1.17;0.70;;;;;;;;;;4933484;28;20110;-89
2021/06/30 09:56:54;;;;;;;0.57;0.57;;;;;;;;;;4941559;28;20027;-88
2021/06/30 09:59:40;;;;;;;0.70;0.70;;;;;;;;;;4936209;29;20027;-90
2021/06/30 10:02:38;;;;;;;0.95;0.70;;;;;;;;;;4938948;29;20034;-90
2021/06/30 10:05:41;;;;;;;2.00;0.55;;;;;;;;;;4932702;29;20031;-91
2021/06/30 10:08:37;;;;;;;1.67;0.50;;;;;;;;;;4930464;28;20023;-90
2021/06/30 10:11:22;;;;;;;1.50;0.50;;;;;;;;;;4939180;28;20488;-88
2021/06/30 10:14:46;;;;;;;1.80;0.57;;;;;;;;;;4940129;28;20034;-93
2021/06/30 10:17:43;;;;;;;2.13;1.00;;;;;;;;;;4945536;29;20055;-91
2021/06/30 10:20:29;;;;;;;1.83;0.70;;;;;;;;;;4938939;29;20035;-90
2021/06/30 10:23:14;;;;;;;2.83;0.85;;;;;;;;;;4939515;29;20138;-90
2021/06/30 10:25:59;;;;;;;3.25;0.60;;;;;;;;;;4940271;29;20035;-90
2021/06/30 10:28:58;;;;;;;0.52;0.52;;;;;;;;;;4940187;28;20031;-93
2021/06/30 10:31:45;;;;;;;0.52;0.52;;;;;;;;;;4949739;29;20027;-92
2021/06/30 10:34:39;;;;;;;0.60;0.60;;;;;;;;;;4928918;29;20034;-92
2021/06/30 10:37:28;;;;;;;1.15;0.80;;;;;;;;;;4941711;29;20151;-92
2021/06/30 10:40:15;;;;;;;1.05;0.70;;;;;;;;;;4937656;28;20036;-91
2021/06/30 10:43:35;;;;;;;1.40;0.52;;;;;;;;;;4925027;28;20434;-92
2021/06/30 10:46:24;;;;;;;1.60;0.70;;;;;;;;;;4928530;29;20046;-90
2021/06/30 10:49:25;;;;;;;0.60;0.60;;;;;;;;;;4937527;29;20028;-91
2021/06/30 10:52:26;;;;;;;0.55;0.55;;;;;;;;;;4935215;29;20031;-90
2021/06/30 10:58:20;;;;;;;2.35;0.70;;;;;;;;;;4947766;28;20050;-89
2021/06/30 11:01:09;;;;;;;1.85;0.70;;;;;;;;;;4939014;28;20023;-90
2021/06/30 11:04:04;;;;;;;;;;;;;;;;;;;;;
2021/06/30 11:06:52;;;;;;;1.27;0.70;;;;;;;;;;4940027;29;20778;-93
2021/06/30 11:09:43;;;;;;;1.23;0.60;;;;;;;;;;4943211;29;20482;-91
2021/06/30 11:12:47;;;;;;;0.57;0.52;;;;;;;;;;4937936;28;20090;-90
2021/06/30 11:16:15;;;;;;;;;;;;;;;;;;;;;
2021/06/30 11:22:46;;;;;;;2.85;0.77;;;;;;;;;;4952061;28;20045;-92
2021/06/30 11:25:31;;;;;;;2.70;1.20;;;;;;;;;;4860297;29;20046;-92
2021/06/30 11:31:44;;;;;;;1.55;0.60;;;;;;;;;;4883327;29;20025;-90
2021/06/30 11:54:56;;;;;;;0.82;0.57;;;;;;;;;;4904922;28;20444;-87
2021/06/30 11:57:51;;;;;;;1.65;1.20;;;;;;;;;;4934492;29;20034;-89
2021/06/30 12:00:42;;;;;;;3.03;0.88;;;;;;;;;;4933844;29;20083;-92
2021/06/30 12:03:29;;;;;;;0.70;0.63;;;;;;;;;;4935033;29;20094;-92
2021/06/30 12:11:30;;;;;;;2.33;0.82;;;;;;;;;;6057058;23;20006;-88
2021/06/30 12:14:17;;;;;;;1.05;0.80;;;;;;;;;;4956750;28;20039;-88
2021/06/30 12:17:06;;;;;;;2.10;0.80;;;;;;;;;;4968757;28;20035;-92
2021/06/30 12:19:52;;;;;;;3.90;0.80;;;;;;;;;;4961184;28;20034;-89
2021/06/30 12:22:41;;;;;;;3.60;1.00;;;;;;;;;;4958143;28;20029;-88
2021/06/30 12:25:28;;;;;;;2.25;0.90;;;;;;;;;;4957701;28;20038;-86
2021/06/30 12:28:14;;;;;;;2.30;0.90;;;;;;;;;;4956808;28;20175;-89
2021/06/30 12:31:00;;;;;;;1.65;1.10;;;;;;;;;;4953881;28;20490;-87
2021/06/30 12:33:46;;;;;;;2.05;0.93;;;;;;;;;;4957896;28;20508;-91
2021/06/30 12:36:35;;;;;;;3.78;1.02;;;;;;;;;;4954570;28;20034;-90
2021/06/30 12:39:20;;;;;;;1.38;0.70;;;;;;;;;;4956807;28;20027;-89
2021/06/30 12:42:09;;;;;;;1.75;0.85;;;;;;;;;;4954551;28;20031;-88
2021/06/30 12:44:59;;;;;;;1.08;0.60;;;;;;;;;;4957092;28;20026;-88
2021/06/30 12:47:44;;;;;;;;;;;;;;;;;;4955899;28;20113;-89
2021/06/30 12:50:39;;;;;;;1.02;0.70;;;;;;;;;;4955295;28;19910;-87
2021/06/30 12:53:35;;;;;;;1.27;0.80;;;;;;;;;;4957629;28;20031;-90
2021/06/30 12:56:36;;;;;;;;;;;;;;;;;;;;;
2021/06/30 12:59:24;;;;;;;0.93;0.70;;;;;;;;;;4949531;28;20085;-88
2021/06/30 13:02:16;;;;;;;0.52;0.52;;;;;;;;;;4948953;28;20029;-84
2021/06/30 13:05:21;;;;;;;0.88;0.70;;;;;;;;;;4956087;28;20026;-86
2021/06/30 13:08:26;;;;;;;1.05;0.70;;;;;;;;;;4951409;28;20497;-84
2021/06/30 13:11:16;;;;;;;0.98;0.68;;;;;;;;;;4954713;28;21954;-86
2021/06/30 13:14:09;;;;;;;1.83;0.63;;;;;;;;;;4954481;28;20038;-85
2021/06/30 13:16:58;;;;;;;1.25;0.70;;;;;;;;;;4949217;28;20141;-85
2021/06/30 13:19:43;;;;;;;0.60;0.60;;;;;;;;;;4955309;28;20027;-84
2021/06/30 13:22:34;;;;;;;0.50;0.50;;;;;;;;;;4951078;28;20030;-85
2021/06/30 13:25:30;;;;;;;1.00;0.90;;;;;;;;;;4954498;28;20092;-86
2021/06/30 13:28:39;;;;;;;0.77;0.63;;;;;;;;;;4938017;28;20049;-87
2021/06/30 13:34:29;;;;;;;1.77;0.80;;;;;;;;;;4956345;28;20422;-88
2021/06/30 13:37:14;;;;;;;0.70;0.70;;;;;;;;;;4951908;28;20090;-84
2021/06/30 13:39:59;;;;;;;1.20;0.80;;;;;;;;;;4955270;28;20022;-86
2021/06/30 13:42:45;;;;;;;1.73;0.90;;;;;;;;;;4955081;28;20026;-86
2021/06/30 13:45:38;;;;;;;0.98;0.68;;;;;;;;;;4957218;28;20139;-86
2021/06/30 13:48:24;;;;;;;5.93;1.25;;;;;;;;;;4955809;28;20033;-87
2021/06/30 13:51:14;;;;;;;5.75;1.20;;;;;;;;;;4957663;28;20061;-88
2021/06/30 13:54:02;;;;;;;;;;;;;;;;;;4955371;28;20019;-88
2021/06/30 13:56:48;;;;;;;2.05;0.90;;;;;;;;;;4940272;28;19906;-89
2021/06/30 13:59:33;;;;;;;4.10;1.00;;;;;;;;;;4953277;28;20058;-87
2021/06/30 14:02:18;;;;;;;2.55;0.90;;;;;;;;;;4935041;28;20029;-86
2021/06/30 14:05:04;;;;;;;1.17;0.77;;;;;;;;;;4952310;28;20030;-85
2021/06/30 14:07:49;;;;;;;2.47;0.90;;;;;;;;;;4953608;28;20019;-87
2021/06/30 14:10:35;;;;;;;0.93;0.80;;;;;;;;;;4952725;28;20114;-88
2021/06/30 14:13:21;;;;;;;0.85;0.65;;;;;;;;;;4933276;29;20043;-86
2021/06/30 14:16:07;;;;;;;0.70;0.70;;;;;;;;;;4931503;29;20380;-88
2021/06/30 14:18:52;;;;;;;2.10;1.00;;;;;;;;;;4937969;29;20019;-84
2021/06/30 14:21:40;;;;;;;2.50;0.98;;;;;;;;;;4941432;29;20111;-86
2021/06/30 14:24:25;;;;;;;1.30;0.90;;;;;;;;;;4923867;29;20031;-89
2021/06/30 14:27:11;;;;;;;1.73;1.08;;;;;;;;;;4929408;29;20023;-88
2021/06/30 14:29:58;;;;;;;1.52;1.02;;;;;;;;;;4929050;29;20028;-88
2021/06/30 14:32:44;;;;;;;4.78;0.88;;;;;;;;;;4937510;29;20031;-86
2021/06/30 14:35:30;;;;;;;1.10;0.90;;;;;;;;;;4933650;29;20119;-87
2021/06/30 14:38:15;;;;;;;4.00;1.50;;;;;;;;;;4927302;29;20153;-85
2021/06/30 14:41:01;;;;;;;1.70;1.10;;;;;;;;;;4937754;29;20027;-88
2021/06/30 14:43:46;;;;;;;0.80;0.70;;;;;;;;;;4930107;29;20082;-87
2021/06/30 14:46:31;;;;;;;1.65;0.95;;;;;;;;;;4928287;29;20107;-85
2021/06/30 14:49:19;;;;;;;1.13;0.93;;;;;;;;;;4930925;29;20268;-86
2021/06/30 14:55:11;;;;;;;1.77;1.00;;;;;;;;;;4907418;29;20114;-84
2021/06/30 14:57:56;;;;;;;2.45;0.88;;;;;;;;;;4936103;29;20038;-84
2021/06/30 15:00:42;;;;;;;1.15;0.75;;;;;;;;;;4928102;29;20020;-85
2021/06/30 15:03:27;;;;;;;1.00;0.75;;;;;;;;;;4939260;29;20384;-85
2021/06/30 15:06:15;;;;;;;0.93;0.80;;;;;;;;;;4927540;29;20119;-88
2021/06/30 15:09:03;;;;;;;1.67;0.80;;;;;;;;;;4942348;29;20031;-90
2021/06/30 15:11:49;;;;;;;0.70;0.70;;;;;;;;;;4947947;28;20043;-92
2021/06/30 15:14:41;;;;;;;1.17;0.80;;;;;;;;;;4959729;28;20429;-90
2021/06/30 15:17:28;;;;;;;0.80;0.73;;;;;;;;;;4949474;28;20039;-92
2021/06/30 15:20:28;;;;;;;0.80;0.80;;;;;;;;;;4961464;28;20623;-93
2021/06/30 15:23:24;;;;;;;1.55;1.00;;;;;;;;;;4956326;28;20038;-94
2021/06/30 15:26:38;;;;;;;2.13;0.68;;;;;;;;;;4956652;28;20046;-95
2021/06/30 15:29:31;;;;;;;4.10;1.33;;;;;;;;;;4916487;29;20075;-93
2021/06/30 15:32:54;;;;;;;1.20;0.77;;;;;;;;;;4938305;28;20059;-95
2021/06/30 15:36:02;;;;;;;2.60;1.00;;;;;;;;;;4934985;28;20549;-91
2021/06/30 15:42:19;;;;;;;2.67;0.90;;;;;;;;;;4936527;28;20034;-93
2021/06/30 15:48:23;;;;;;;4.72;1.08;;;;;;;;;;4947382;28;20001;-90
2021/06/30 15:51:09;;;;;;;0.80;0.80;;;;;;;;;;4943454;28;20019;-90
2021/06/30 15:54:03;;;;;;;1.60;0.90;;;;;;;;;;4956225;28;20031;-89
2021/06/30 16:00:19;;;;;;;3.83;1.20;;;;;;;;;;4905691;29;20058;-90
2021/06/30 16:03:05;;;;;;;2.15;0.80;;;;;;;;;;4902751;29;20044;-89
2021/06/30 16:09:25;;;;;;;4.10;2.45;;;;;;;;;;4957842;28;20034;-89
2021/06/30 16:12:49;;;;;;;3.30;1.25;;;;;;;;;;4952743;28;20367;-89
2021/06/30 16:56:51;;;;;;;3.22;0.90;;;;;;;;;;4961742;28;20059;-91
2021/06/30 16:59:36;;;;;;;2.35;1.10;;;;;;;;;;4955876;28;20122;-92
2021/06/30 17:02:21;;;;;;;1.30;0.82;;;;;;;;;;4956557;28;20022;-92
2021/06/30 17:05:07;;;;;;;1.73;1.00;;;;;;;;;;4943606;29;20027;-91
2021/06/30 17:07:55;;;;;;;2.47;1.10;;;;;;;;;;4938348;29;20023;-92
2021/06/30 17:14:16;;;;;;;2.35;1.10;;;;;;;;;;4932842;29;20035;-94
2021/06/30 17:17:05;;;;;;;1.48;0.95;;;;;;;;;;4935380;29;20039;-92
2021/06/30 17:19:53;;;;;;;1.52;0.88;;;;;;;;;;4936091;29;20395;-93
2021/06/30 17:22:39;;;;;;;2.55;1.00;;;;;;;;;;4941631;29;20038;-92
2021/06/30 17:25:24;;;;;;;2.90;1.00;;;;;;;;;;4921194;29;20023;-91
2021/06/30 17:28:09;;;;;;;1.35;0.85;;;;;;;;;;4940164;29;20033;-92
2021/06/30 17:30:55;;;;;;;3.78;0.90;;;;;;;;;;4913743;29;20026;-90
2021/06/30 17:33:41;;;;;;;1.17;1.00;;;;;;;;;;4926065;29;20042;-91
2021/06/30 17:36:27;;;;;;;1.77;1.13;;;;;;;;;;4917691;29;20475;-91
2021/06/30 17:39:12;;;;;;;2.55;0.70;;;;;;;;;;4936625;29;20345;-90
2021/06/30 17:41:58;;;;;;;5.20;1.10;;;;;;;;;;4937046;29;20034;-91
2021/06/30 17:44:43;;;;;;;3.08;0.63;;;;;;;;;;4928002;29;20028;-92
2021/06/30 17:47:28;;;;;;;1.75;0.80;;;;;;;;;;4928849;29;20036;-89
2021/06/30 17:50:14;;;;;;;0.70;0.70;;;;;;;;;;4935942;29;20028;-91
2021/06/30 17:53:00;;;;;;;1.27;0.77;;;;;;;;;;4921741;29;20038;-91
2021/06/30 17:55:45;;;;;;;0.80;0.80;;;;;;;;;;4934380;29;20047;-90
2021/06/30 17:59:09;;;;;;;0.85;0.85;;;;;;;;;;4945393;29;20035;-93
2021/06/30 18:01:57;;;;;;;1.20;0.77;;;;;;;;;;4920714;29;20054;-91
2021/06/30 18:05:37;;;;;;;1.73;0.77;;;;;;;;;;4937824;29;20426;-93
2021/06/30 18:08:09;;;;;;;0.80;0.80;;;;;;;;;;5303091;23;20054;-90
2021/06/30 18:10:55;;;;;;;1.60;0.90;;;;;;;;;;4951558;28;20030;-89
2021/06/30 18:13:40;;;;;;;2.88;0.90;;;;;;;;;;4952727;28;20019;-91
2021/06/30 18:16:25;;;;;;;0.70;0.70;;;;;;;;;;4938109;28;20027;-90
2021/06/30 18:19:11;;;;;;;1.13;0.80;;;;;;;;;;4950409;28;20045;-91
2021/06/30 18:21:56;;;;;;;1.58;0.82;;;;;;;;;;4951172;28;20061;-90
2021/06/30 18:24:42;;;;;;;1.08;0.90;;;;;;;;;;4956246;28;20027;-92
2021/06/30 18:27:28;;;;;;;2.47;0.73;;;;;;;;;;4950930;28;20030;-92
2021/06/30 18:30:16;;;;;;;2.58;1.00;;;;;;;;;;4953261;28;20045;-90
2021/06/30 18:33:01;;;;;;;3.85;1.23;;;;;;;;;;4955266;28;20280;-91
2021/06/30 18:35:47;;;;;;;0.93;0.68;;;;;;;;;;4939074;28;20027;-87
2021/06/30 18:38:36;;;;;;;0.77;0.70;;;;;;;;;;4948467;28;20038;-90
2021/06/30 18:41:21;;;;;;;2.43;0.70;;;;;;;;;;4955060;28;20109;-88
2021/06/30 18:44:06;;;;;;;1.75;0.80;;;;;;;;;;4958709;28;20286;-91
2021/06/30 18:46:52;;;;;;;0.73;0.73;;;;;;;;;;4958464;28;20042;-89
2021/06/30 18:49:38;;;;;;;3.17;1.13;;;;;;;;;;4958847;28;20023;-92
2021/06/30 18:52:38;;;;;;;;;;;;;;;;;;;;;
2021/06/30 18:55:54;;;;;;;;;;;;;;;;;;;;;
2021/06/30 18:58:43;;;;;;;0.73;0.70;;;;;;;;;;4953135;28;20066;-91
2021/06/30 19:01:46;;;;;;;1.48;1.02;;;;;;;;;;4961546;28;20066;-92